<?xml version="1.0" encoding="UTF-8" standalone="no" ?>
<gpx xmlns="http://www.topografix.com/GPX/1/1" xmlns:xsi="http://www.w3.org/2001/XMLSchema-instance" xsi:schemaLocation="http://www.topografix.com/GPX/1/1 http://www.topografix.com/GPX/1/1/gpx.xsd" version="1.1" creator="VisuGPX - https://www.visugpx.com">
  <metadata>
    <name>Chatreuse : les 3 fontaines - Prairie de charminelle</name>
    <desc><![CDATA[Sortie trail en chartreuse le 1/05/2012. Départ les 3 fontaines, descente à pommier la placette, remontée vers chalais, puis le chalet de la roiez et la prairie de charminelle, redescente vers les 3 fontaines par le pas de la misericorde.]]></desc>
  </metadata>
  <trk>
    <name><![CDATA[01.05/08:11]]></name>
    <trkseg>
      <trkpt lat="45.32593" lon="5.6792">
        <ele>715</ele>
        <time>2012-05-01T08:13:42Z</time>
      </trkpt>
      <trkpt lat="45.32579" lon="5.67923">
        <ele>716</ele>
        <time>2012-05-01T08:14:42Z</time>
      </trkpt>
      <trkpt lat="45.32576" lon="5.67923">
        <ele>716</ele>
        <time>2012-05-01T08:15:42Z</time>
      </trkpt>
      <trkpt lat="45.32574" lon="5.67923">
        <ele>715</ele>
        <time>2012-05-01T08:16:42Z</time>
      </trkpt>
      <trkpt lat="45.32538" lon="5.67961">
        <ele>716</ele>
        <time>2012-05-01T08:17:03Z</time>
      </trkpt>
      <trkpt lat="45.32498" lon="5.67991">
        <ele>716</ele>
        <time>2012-05-01T08:17:28Z</time>
      </trkpt>
      <trkpt lat="45.32455" lon="5.67969">
        <ele>719</ele>
        <time>2012-05-01T08:17:51Z</time>
      </trkpt>
      <trkpt lat="45.32435" lon="5.67907">
        <ele>722</ele>
        <time>2012-05-01T08:18:11Z</time>
      </trkpt>
      <trkpt lat="45.32417" lon="5.67846">
        <ele>724</ele>
        <time>2012-05-01T08:18:30Z</time>
      </trkpt>
      <trkpt lat="45.32396" lon="5.67791">
        <ele>724</ele>
        <time>2012-05-01T08:18:45Z</time>
      </trkpt>
      <trkpt lat="45.32407" lon="5.67729">
        <ele>722</ele>
        <time>2012-05-01T08:19:01Z</time>
      </trkpt>
      <trkpt lat="45.3243" lon="5.67674">
        <ele>720</ele>
        <time>2012-05-01T08:19:17Z</time>
      </trkpt>
      <trkpt lat="45.32433" lon="5.67611">
        <ele>718</ele>
        <time>2012-05-01T08:19:34Z</time>
      </trkpt>
      <trkpt lat="45.32423" lon="5.67548">
        <ele>716</ele>
        <time>2012-05-01T08:19:54Z</time>
      </trkpt>
      <trkpt lat="45.32434" lon="5.67486">
        <ele>713</ele>
        <time>2012-05-01T08:20:16Z</time>
      </trkpt>
      <trkpt lat="45.32423" lon="5.67422">
        <ele>709</ele>
        <time>2012-05-01T08:20:33Z</time>
      </trkpt>
      <trkpt lat="45.32421" lon="5.67358">
        <ele>708</ele>
        <time>2012-05-01T08:20:43Z</time>
      </trkpt>
      <trkpt lat="45.32406" lon="5.67298">
        <ele>707</ele>
        <time>2012-05-01T08:20:55Z</time>
      </trkpt>
      <trkpt lat="45.32389" lon="5.67233">
        <ele>704</ele>
        <time>2012-05-01T08:21:10Z</time>
      </trkpt>
      <trkpt lat="45.32386" lon="5.67169">
        <ele>703</ele>
        <time>2012-05-01T08:21:25Z</time>
      </trkpt>
      <trkpt lat="45.32367" lon="5.6711">
        <ele>703</ele>
        <time>2012-05-01T08:21:46Z</time>
      </trkpt>
      <trkpt lat="45.32322" lon="5.67117">
        <ele>705</ele>
        <time>2012-05-01T08:22:09Z</time>
      </trkpt>
      <trkpt lat="45.32281" lon="5.67088">
        <ele>710</ele>
        <time>2012-05-01T08:22:26Z</time>
      </trkpt>
      <trkpt lat="45.32246" lon="5.67049">
        <ele>714</ele>
        <time>2012-05-01T08:22:48Z</time>
      </trkpt>
      <trkpt lat="45.32205" lon="5.67018">
        <ele>719</ele>
        <time>2012-05-01T08:23:11Z</time>
      </trkpt>
      <trkpt lat="45.32168" lon="5.6698">
        <ele>719</ele>
        <time>2012-05-01T08:23:30Z</time>
      </trkpt>
      <trkpt lat="45.32128" lon="5.66947">
        <ele>718</ele>
        <time>2012-05-01T08:23:48Z</time>
      </trkpt>
      <trkpt lat="45.3209" lon="5.66911">
        <ele>723</ele>
        <time>2012-05-01T08:24:10Z</time>
      </trkpt>
      <trkpt lat="45.32046" lon="5.66894">
        <ele>721</ele>
        <time>2012-05-01T08:24:28Z</time>
      </trkpt>
      <trkpt lat="45.32001" lon="5.66911">
        <ele>721</ele>
        <time>2012-05-01T08:24:46Z</time>
      </trkpt>
      <trkpt lat="45.31961" lon="5.6694">
        <ele>722</ele>
        <time>2012-05-01T08:25:01Z</time>
      </trkpt>
      <trkpt lat="45.31919" lon="5.66968">
        <ele>726</ele>
        <time>2012-05-01T08:25:24Z</time>
      </trkpt>
      <trkpt lat="45.31908" lon="5.67029">
        <ele>737</ele>
        <time>2012-05-01T08:26:12Z</time>
      </trkpt>
      <trkpt lat="45.3187" lon="5.67065">
        <ele>743</ele>
        <time>2012-05-01T08:26:31Z</time>
      </trkpt>
      <trkpt lat="45.31842" lon="5.67115">
        <ele>746</ele>
        <time>2012-05-01T08:26:45Z</time>
      </trkpt>
      <trkpt lat="45.3181" lon="5.67162">
        <ele>745</ele>
        <time>2012-05-01T08:27:00Z</time>
      </trkpt>
      <trkpt lat="45.31775" lon="5.67208">
        <ele>739</ele>
        <time>2012-05-01T08:27:20Z</time>
      </trkpt>
      <trkpt lat="45.31735" lon="5.67238">
        <ele>738</ele>
        <time>2012-05-01T08:27:48Z</time>
      </trkpt>
      <trkpt lat="45.31696" lon="5.6727">
        <ele>737</ele>
        <time>2012-05-01T08:28:02Z</time>
      </trkpt>
      <trkpt lat="45.31648" lon="5.6727">
        <ele>730</ele>
        <time>2012-05-01T08:28:27Z</time>
      </trkpt>
      <trkpt lat="45.31614" lon="5.67229">
        <ele>727</ele>
        <time>2012-05-01T08:28:47Z</time>
      </trkpt>
      <trkpt lat="45.31586" lon="5.67179">
        <ele>737</ele>
        <time>2012-05-01T08:29:13Z</time>
      </trkpt>
      <trkpt lat="45.31538" lon="5.67198">
        <ele>753</ele>
        <time>2012-05-01T08:30:05Z</time>
      </trkpt>
      <trkpt lat="45.31525" lon="5.67137">
        <ele>745</ele>
        <time>2012-05-01T08:30:57Z</time>
      </trkpt>
      <trkpt lat="45.3154" lon="5.67074">
        <ele>734</ele>
        <time>2012-05-01T08:31:25Z</time>
      </trkpt>
      <trkpt lat="45.31538" lon="5.67042">
        <ele>729</ele>
        <time>2012-05-01T08:32:25Z</time>
      </trkpt>
      <trkpt lat="45.31564" lon="5.66986">
        <ele>718</ele>
        <time>2012-05-01T08:32:55Z</time>
      </trkpt>
      <trkpt lat="45.31579" lon="5.66926">
        <ele>699</ele>
        <time>2012-05-01T08:33:22Z</time>
      </trkpt>
      <trkpt lat="45.31547" lon="5.66879">
        <ele>687</ele>
        <time>2012-05-01T08:33:45Z</time>
      </trkpt>
      <trkpt lat="45.31517" lon="5.66833">
        <ele>675</ele>
        <time>2012-05-01T08:34:06Z</time>
      </trkpt>
      <trkpt lat="45.31489" lon="5.6678">
        <ele>663</ele>
        <time>2012-05-01T08:34:25Z</time>
      </trkpt>
      <trkpt lat="45.31468" lon="5.66722">
        <ele>653</ele>
        <time>2012-05-01T08:34:45Z</time>
      </trkpt>
      <trkpt lat="45.31469" lon="5.66659">
        <ele>644</ele>
        <time>2012-05-01T08:35:09Z</time>
      </trkpt>
      <trkpt lat="45.31441" lon="5.6661">
        <ele>626</ele>
        <time>2012-05-01T08:35:37Z</time>
      </trkpt>
      <trkpt lat="45.31464" lon="5.66556">
        <ele>619</ele>
        <time>2012-05-01T08:35:48Z</time>
      </trkpt>
      <trkpt lat="45.31491" lon="5.66504">
        <ele>609</ele>
        <time>2012-05-01T08:36:00Z</time>
      </trkpt>
      <trkpt lat="45.31518" lon="5.66451">
        <ele>604</ele>
        <time>2012-05-01T08:36:15Z</time>
      </trkpt>
      <trkpt lat="45.31564" lon="5.66437">
        <ele>597</ele>
        <time>2012-05-01T08:36:33Z</time>
      </trkpt>
      <trkpt lat="45.31613" lon="5.66425">
        <ele>586</ele>
        <time>2012-05-01T08:36:51Z</time>
      </trkpt>
      <trkpt lat="45.31659" lon="5.66433">
        <ele>583</ele>
        <time>2012-05-01T08:37:06Z</time>
      </trkpt>
      <trkpt lat="45.31691" lon="5.66482">
        <ele>580</ele>
        <time>2012-05-01T08:37:19Z</time>
      </trkpt>
      <trkpt lat="45.31721" lon="5.66533">
        <ele>574</ele>
        <time>2012-05-01T08:37:37Z</time>
      </trkpt>
      <trkpt lat="45.31764" lon="5.66552">
        <ele>569</ele>
        <time>2012-05-01T08:37:53Z</time>
      </trkpt>
      <trkpt lat="45.31763" lon="5.66487">
        <ele>559</ele>
        <time>2012-05-01T08:38:18Z</time>
      </trkpt>
      <trkpt lat="45.31796" lon="5.66446">
        <ele>554</ele>
        <time>2012-05-01T08:38:29Z</time>
      </trkpt>
      <trkpt lat="45.31751" lon="5.66411">
        <ele>544</ele>
        <time>2012-05-01T08:38:45Z</time>
      </trkpt>
      <trkpt lat="45.31733" lon="5.66348">
        <ele>527</ele>
        <time>2012-05-01T08:39:13Z</time>
      </trkpt>
      <trkpt lat="45.31743" lon="5.66285">
        <ele>521</ele>
        <time>2012-05-01T08:39:27Z</time>
      </trkpt>
      <trkpt lat="45.31758" lon="5.66225">
        <ele>511</ele>
        <time>2012-05-01T08:39:40Z</time>
      </trkpt>
      <trkpt lat="45.31769" lon="5.66161">
        <ele>506</ele>
        <time>2012-05-01T08:39:56Z</time>
      </trkpt>
      <trkpt lat="45.31781" lon="5.66098">
        <ele>496</ele>
        <time>2012-05-01T08:40:12Z</time>
      </trkpt>
      <trkpt lat="45.3178" lon="5.66033">
        <ele>491</ele>
        <time>2012-05-01T08:40:29Z</time>
      </trkpt>
      <trkpt lat="45.31777" lon="5.65967">
        <ele>482</ele>
        <time>2012-05-01T08:40:47Z</time>
      </trkpt>
      <trkpt lat="45.31775" lon="5.659">
        <ele>473</ele>
        <time>2012-05-01T08:41:03Z</time>
      </trkpt>
      <trkpt lat="45.31769" lon="5.65834">
        <ele>468</ele>
        <time>2012-05-01T08:41:19Z</time>
      </trkpt>
      <trkpt lat="45.31727" lon="5.65805">
        <ele>462</ele>
        <time>2012-05-01T08:41:37Z</time>
      </trkpt>
      <trkpt lat="45.31681" lon="5.65795">
        <ele>459</ele>
        <time>2012-05-01T08:41:53Z</time>
      </trkpt>
      <trkpt lat="45.31644" lon="5.65758">
        <ele>460</ele>
        <time>2012-05-01T08:42:10Z</time>
      </trkpt>
      <trkpt lat="45.316" lon="5.65739">
        <ele>460</ele>
        <time>2012-05-01T08:42:27Z</time>
      </trkpt>
      <trkpt lat="45.31556" lon="5.65722">
        <ele>455</ele>
        <time>2012-05-01T08:42:44Z</time>
      </trkpt>
      <trkpt lat="45.31511" lon="5.65713">
        <ele>453</ele>
        <time>2012-05-01T08:42:58Z</time>
      </trkpt>
      <trkpt lat="45.31493" lon="5.65653">
        <ele>448</ele>
        <time>2012-05-01T08:43:18Z</time>
      </trkpt>
      <trkpt lat="45.31486" lon="5.65588">
        <ele>440</ele>
        <time>2012-05-01T08:43:33Z</time>
      </trkpt>
      <trkpt lat="45.31488" lon="5.65583">
        <ele>438</ele>
        <time>2012-05-01T08:44:33Z</time>
      </trkpt>
      <trkpt lat="45.31501" lon="5.65587">
        <ele>437</ele>
        <time>2012-05-01T08:45:33Z</time>
      </trkpt>
      <trkpt lat="45.31496" lon="5.65589">
        <ele>437</ele>
        <time>2012-05-01T08:46:33Z</time>
      </trkpt>
      <trkpt lat="45.31513" lon="5.65648">
        <ele>445</ele>
        <time>2012-05-01T08:47:25Z</time>
      </trkpt>
      <trkpt lat="45.31466" lon="5.65645">
        <ele>445</ele>
        <time>2012-05-01T08:47:54Z</time>
      </trkpt>
      <trkpt lat="45.31419" lon="5.65645">
        <ele>442</ele>
        <time>2012-05-01T08:48:10Z</time>
      </trkpt>
      <trkpt lat="45.31369" lon="5.65645">
        <ele>442</ele>
        <time>2012-05-01T08:48:24Z</time>
      </trkpt>
      <trkpt lat="45.31334" lon="5.65686">
        <ele>448</ele>
        <time>2012-05-01T08:48:56Z</time>
      </trkpt>
      <trkpt lat="45.31324" lon="5.65749">
        <ele>457</ele>
        <time>2012-05-01T08:49:21Z</time>
      </trkpt>
      <trkpt lat="45.31286" lon="5.65789">
        <ele>467</ele>
        <time>2012-05-01T08:49:53Z</time>
      </trkpt>
      <trkpt lat="45.31252" lon="5.65747">
        <ele>478</ele>
        <time>2012-05-01T08:50:35Z</time>
      </trkpt>
      <trkpt lat="45.31205" lon="5.65762">
        <ele>482</ele>
        <time>2012-05-01T08:50:57Z</time>
      </trkpt>
      <trkpt lat="45.31162" lon="5.65781">
        <ele>490</ele>
        <time>2012-05-01T08:51:25Z</time>
      </trkpt>
      <trkpt lat="45.31118" lon="5.65798">
        <ele>503</ele>
        <time>2012-05-01T08:52:02Z</time>
      </trkpt>
      <trkpt lat="45.31072" lon="5.65803">
        <ele>509</ele>
        <time>2012-05-01T08:52:28Z</time>
      </trkpt>
      <trkpt lat="45.31066" lon="5.65869">
        <ele>517</ele>
        <time>2012-05-01T08:52:59Z</time>
      </trkpt>
      <trkpt lat="45.31089" lon="5.65927">
        <ele>523</ele>
        <time>2012-05-01T08:53:18Z</time>
      </trkpt>
      <trkpt lat="45.31089" lon="5.65991">
        <ele>530</ele>
        <time>2012-05-01T08:53:44Z</time>
      </trkpt>
      <trkpt lat="45.31083" lon="5.66054">
        <ele>538</ele>
        <time>2012-05-01T08:54:10Z</time>
      </trkpt>
      <trkpt lat="45.31045" lon="5.66088">
        <ele>541</ele>
        <time>2012-05-01T08:54:36Z</time>
      </trkpt>
      <trkpt lat="45.31009" lon="5.66127">
        <ele>541</ele>
        <time>2012-05-01T08:54:58Z</time>
      </trkpt>
      <trkpt lat="45.3099" lon="5.66184">
        <ele>538</ele>
        <time>2012-05-01T08:55:18Z</time>
      </trkpt>
      <trkpt lat="45.30944" lon="5.66182">
        <ele>536</ele>
        <time>2012-05-01T08:55:49Z</time>
      </trkpt>
      <trkpt lat="45.30903" lon="5.66148">
        <ele>540</ele>
        <time>2012-05-01T08:56:10Z</time>
      </trkpt>
      <trkpt lat="45.30857" lon="5.66162">
        <ele>545</ele>
        <time>2012-05-01T08:56:37Z</time>
      </trkpt>
      <trkpt lat="45.30817" lon="5.66198">
        <ele>548</ele>
        <time>2012-05-01T08:56:54Z</time>
      </trkpt>
      <trkpt lat="45.308" lon="5.6626">
        <ele>553</ele>
        <time>2012-05-01T08:57:23Z</time>
      </trkpt>
      <trkpt lat="45.3078" lon="5.66316">
        <ele>557</ele>
        <time>2012-05-01T08:57:41Z</time>
      </trkpt>
      <trkpt lat="45.30793" lon="5.66379">
        <ele>566</ele>
        <time>2012-05-01T08:58:21Z</time>
      </trkpt>
      <trkpt lat="45.30749" lon="5.66399">
        <ele>571</ele>
        <time>2012-05-01T08:58:40Z</time>
      </trkpt>
      <trkpt lat="45.30699" lon="5.66419">
        <ele>573</ele>
        <time>2012-05-01T08:58:50Z</time>
      </trkpt>
      <trkpt lat="45.30695" lon="5.66482">
        <ele>572</ele>
        <time>2012-05-01T08:59:16Z</time>
      </trkpt>
      <trkpt lat="45.30699" lon="5.66547">
        <ele>576</ele>
        <time>2012-05-01T08:59:45Z</time>
      </trkpt>
      <trkpt lat="45.30676" lon="5.66606">
        <ele>578</ele>
        <time>2012-05-01T08:59:57Z</time>
      </trkpt>
      <trkpt lat="45.30638" lon="5.66644">
        <ele>582</ele>
        <time>2012-05-01T09:00:33Z</time>
      </trkpt>
      <trkpt lat="45.30595" lon="5.66659">
        <ele>586</ele>
        <time>2012-05-01T09:00:45Z</time>
      </trkpt>
      <trkpt lat="45.30573" lon="5.6672">
        <ele>587</ele>
        <time>2012-05-01T09:01:21Z</time>
      </trkpt>
      <trkpt lat="45.30592" lon="5.6678">
        <ele>579</ele>
        <time>2012-05-01T09:01:48Z</time>
      </trkpt>
      <trkpt lat="45.30631" lon="5.66816">
        <ele>578</ele>
        <time>2012-05-01T09:02:36Z</time>
      </trkpt>
      <trkpt lat="45.30599" lon="5.66866">
        <ele>581</ele>
        <time>2012-05-01T09:02:55Z</time>
      </trkpt>
      <trkpt lat="45.30564" lon="5.66906">
        <ele>586</ele>
        <time>2012-05-01T09:03:06Z</time>
      </trkpt>
      <trkpt lat="45.306" lon="5.66946">
        <ele>584</ele>
        <time>2012-05-01T09:03:24Z</time>
      </trkpt>
      <trkpt lat="45.3065" lon="5.6695">
        <ele>579</ele>
        <time>2012-05-01T09:03:41Z</time>
      </trkpt>
      <trkpt lat="45.30602" lon="5.66973">
        <ele>574</ele>
        <time>2012-05-01T09:03:57Z</time>
      </trkpt>
      <trkpt lat="45.3048" lon="5.67057">
        <ele>572</ele>
        <time>2012-05-01T09:04:07Z</time>
      </trkpt>
      <trkpt lat="45.30422" lon="5.67111">
        <ele>573</ele>
        <time>2012-05-01T09:04:23Z</time>
      </trkpt>
      <trkpt lat="45.30405" lon="5.67152">
        <ele>571</ele>
        <time>2012-05-01T09:05:23Z</time>
      </trkpt>
      <trkpt lat="45.30428" lon="5.67135">
        <ele>574</ele>
        <time>2012-05-01T09:06:23Z</time>
      </trkpt>
      <trkpt lat="45.30403" lon="5.67082">
        <ele>581</ele>
        <time>2012-05-01T09:06:50Z</time>
      </trkpt>
      <trkpt lat="45.30379" lon="5.67024">
        <ele>582</ele>
        <time>2012-05-01T09:07:09Z</time>
      </trkpt>
      <trkpt lat="45.30363" lon="5.66964">
        <ele>577</ele>
        <time>2012-05-01T09:07:30Z</time>
      </trkpt>
      <trkpt lat="45.30338" lon="5.66911">
        <ele>569</ele>
        <time>2012-05-01T09:07:45Z</time>
      </trkpt>
      <trkpt lat="45.30332" lon="5.66847">
        <ele>560</ele>
        <time>2012-05-01T09:08:16Z</time>
      </trkpt>
      <trkpt lat="45.30305" lon="5.66794">
        <ele>560</ele>
        <time>2012-05-01T09:08:32Z</time>
      </trkpt>
      <trkpt lat="45.30265" lon="5.66763">
        <ele>559</ele>
        <time>2012-05-01T09:08:47Z</time>
      </trkpt>
      <trkpt lat="45.30228" lon="5.66726">
        <ele>556</ele>
        <time>2012-05-01T09:09:05Z</time>
      </trkpt>
      <trkpt lat="45.30251" lon="5.66658">
        <ele>554</ele>
        <time>2012-05-01T09:09:18Z</time>
      </trkpt>
      <trkpt lat="45.30279" lon="5.66607">
        <ele>553</ele>
        <time>2012-05-01T09:09:28Z</time>
      </trkpt>
      <trkpt lat="45.30285" lon="5.66543">
        <ele>550</ele>
        <time>2012-05-01T09:09:57Z</time>
      </trkpt>
      <trkpt lat="45.30309" lon="5.66485">
        <ele>549</ele>
        <time>2012-05-01T09:10:12Z</time>
      </trkpt>
      <trkpt lat="45.30336" lon="5.66431">
        <ele>547</ele>
        <time>2012-05-01T09:10:22Z</time>
      </trkpt>
      <trkpt lat="45.30291" lon="5.66449">
        <ele>548</ele>
        <time>2012-05-01T09:10:32Z</time>
      </trkpt>
      <trkpt lat="45.30326" lon="5.66409">
        <ele>546</ele>
        <time>2012-05-01T09:10:54Z</time>
      </trkpt>
      <trkpt lat="45.30353" lon="5.6635">
        <ele>543</ele>
        <time>2012-05-01T09:11:14Z</time>
      </trkpt>
      <trkpt lat="45.30416" lon="5.66279">
        <ele>543</ele>
        <time>2012-05-01T09:11:24Z</time>
      </trkpt>
      <trkpt lat="45.30451" lon="5.66235">
        <ele>543</ele>
        <time>2012-05-01T09:11:41Z</time>
      </trkpt>
      <trkpt lat="45.3047" lon="5.66175">
        <ele>542</ele>
        <time>2012-05-01T09:12:09Z</time>
      </trkpt>
      <trkpt lat="45.30476" lon="5.66109">
        <ele>543</ele>
        <time>2012-05-01T09:12:25Z</time>
      </trkpt>
      <trkpt lat="45.30505" lon="5.66057">
        <ele>548</ele>
        <time>2012-05-01T09:12:53Z</time>
      </trkpt>
      <trkpt lat="45.30504" lon="5.66081">
        <ele>563</ele>
        <time>2012-05-01T09:13:53Z</time>
      </trkpt>
      <trkpt lat="45.30544" lon="5.66117">
        <ele>575</ele>
        <time>2012-05-01T09:14:38Z</time>
      </trkpt>
      <trkpt lat="45.305" lon="5.66147">
        <ele>592</ele>
        <time>2012-05-01T09:15:33Z</time>
      </trkpt>
      <trkpt lat="45.30457" lon="5.66178">
        <ele>598</ele>
        <time>2012-05-01T09:16:08Z</time>
      </trkpt>
      <trkpt lat="45.30425" lon="5.66225">
        <ele>605</ele>
        <time>2012-05-01T09:16:38Z</time>
      </trkpt>
      <trkpt lat="45.30394" lon="5.66272">
        <ele>613</ele>
        <time>2012-05-01T09:17:16Z</time>
      </trkpt>
      <trkpt lat="45.30354" lon="5.66302">
        <ele>616</ele>
        <time>2012-05-01T09:17:40Z</time>
      </trkpt>
      <trkpt lat="45.30354" lon="5.66367">
        <ele>620</ele>
        <time>2012-05-01T09:18:14Z</time>
      </trkpt>
      <trkpt lat="45.30311" lon="5.66391">
        <ele>623</ele>
        <time>2012-05-01T09:18:32Z</time>
      </trkpt>
      <trkpt lat="45.30287" lon="5.66434">
        <ele>639</ele>
        <time>2012-05-01T09:19:32Z</time>
      </trkpt>
      <trkpt lat="45.30275" lon="5.66497">
        <ele>650</ele>
        <time>2012-05-01T09:20:12Z</time>
      </trkpt>
      <trkpt lat="45.30233" lon="5.66523">
        <ele>653</ele>
        <time>2012-05-01T09:20:28Z</time>
      </trkpt>
      <trkpt lat="45.30198" lon="5.66566">
        <ele>661</ele>
        <time>2012-05-01T09:20:59Z</time>
      </trkpt>
      <trkpt lat="45.30132" lon="5.66621">
        <ele>665</ele>
        <time>2012-05-01T09:21:09Z</time>
      </trkpt>
      <trkpt lat="45.30139" lon="5.66646">
        <ele>680</ele>
        <time>2012-05-01T09:22:09Z</time>
      </trkpt>
      <trkpt lat="45.30083" lon="5.66684">
        <ele>683</ele>
        <time>2012-05-01T09:22:19Z</time>
      </trkpt>
      <trkpt lat="45.3004" lon="5.66702">
        <ele>686</ele>
        <time>2012-05-01T09:22:39Z</time>
      </trkpt>
      <trkpt lat="45.30029" lon="5.66685">
        <ele>687</ele>
        <time>2012-05-01T09:23:39Z</time>
      </trkpt>
      <trkpt lat="45.30026" lon="5.66725">
        <ele>699</ele>
        <time>2012-05-01T09:24:39Z</time>
      </trkpt>
      <trkpt lat="45.2999" lon="5.66767">
        <ele>709</ele>
        <time>2012-05-01T09:25:15Z</time>
      </trkpt>
      <trkpt lat="45.29959" lon="5.66815">
        <ele>712</ele>
        <time>2012-05-01T09:25:28Z</time>
      </trkpt>
      <trkpt lat="45.29922" lon="5.66855">
        <ele>717</ele>
        <time>2012-05-01T09:25:59Z</time>
      </trkpt>
      <trkpt lat="45.29884" lon="5.66889">
        <ele>726</ele>
        <time>2012-05-01T09:26:39Z</time>
      </trkpt>
      <trkpt lat="45.2984" lon="5.66915">
        <ele>739</ele>
        <time>2012-05-01T09:27:31Z</time>
      </trkpt>
      <trkpt lat="45.29807" lon="5.66961">
        <ele>746</ele>
        <time>2012-05-01T09:28:09Z</time>
      </trkpt>
      <trkpt lat="45.29768" lon="5.66994">
        <ele>753</ele>
        <time>2012-05-01T09:28:42Z</time>
      </trkpt>
      <trkpt lat="45.29725" lon="5.6701">
        <ele>757</ele>
        <time>2012-05-01T09:29:20Z</time>
      </trkpt>
      <trkpt lat="45.29686" lon="5.67044">
        <ele>759</ele>
        <time>2012-05-01T09:29:35Z</time>
      </trkpt>
      <trkpt lat="45.29645" lon="5.67074">
        <ele>762</ele>
        <time>2012-05-01T09:29:50Z</time>
      </trkpt>
      <trkpt lat="45.29602" lon="5.67093">
        <ele>764</ele>
        <time>2012-05-01T09:30:19Z</time>
      </trkpt>
      <trkpt lat="45.29553" lon="5.67102">
        <ele>774</ele>
        <time>2012-05-01T09:30:54Z</time>
      </trkpt>
      <trkpt lat="45.29508" lon="5.6713">
        <ele>776</ele>
        <time>2012-05-01T09:31:25Z</time>
      </trkpt>
      <trkpt lat="45.29552" lon="5.67139">
        <ele>782</ele>
        <time>2012-05-01T09:31:47Z</time>
      </trkpt>
      <trkpt lat="45.29512" lon="5.67167">
        <ele>794</ele>
        <time>2012-05-01T09:32:23Z</time>
      </trkpt>
      <trkpt lat="45.29466" lon="5.67176">
        <ele>804</ele>
        <time>2012-05-01T09:33:03Z</time>
      </trkpt>
      <trkpt lat="45.2942" lon="5.67196">
        <ele>812</ele>
        <time>2012-05-01T09:33:39Z</time>
      </trkpt>
      <trkpt lat="45.29444" lon="5.67212">
        <ele>827</ele>
        <time>2012-05-01T09:34:39Z</time>
      </trkpt>
      <trkpt lat="45.29416" lon="5.67245">
        <ele>843</ele>
        <time>2012-05-01T09:35:39Z</time>
      </trkpt>
      <trkpt lat="45.29443" lon="5.67269">
        <ele>849</ele>
        <time>2012-05-01T09:36:39Z</time>
      </trkpt>
      <trkpt lat="45.29449" lon="5.67284">
        <ele>851</ele>
        <time>2012-05-01T09:37:39Z</time>
      </trkpt>
      <trkpt lat="45.29421" lon="5.67334">
        <ele>864</ele>
        <time>2012-05-01T09:38:20Z</time>
      </trkpt>
      <trkpt lat="45.29412" lon="5.67378">
        <ele>877</ele>
        <time>2012-05-01T09:39:21Z</time>
      </trkpt>
      <trkpt lat="45.29401" lon="5.6738">
        <ele>878</ele>
        <time>2012-05-01T09:40:21Z</time>
      </trkpt>
      <trkpt lat="45.294" lon="5.67371">
        <ele>877</ele>
        <time>2012-05-01T09:41:21Z</time>
      </trkpt>
      <trkpt lat="45.294" lon="5.67385">
        <ele>876</ele>
        <time>2012-05-01T09:42:21Z</time>
      </trkpt>
      <trkpt lat="45.29385" lon="5.67396">
        <ele>878</ele>
        <time>2012-05-01T09:43:21Z</time>
      </trkpt>
      <trkpt lat="45.2939" lon="5.67396">
        <ele>879</ele>
        <time>2012-05-01T09:44:21Z</time>
      </trkpt>
      <trkpt lat="45.29391" lon="5.67459">
        <ele>889</ele>
        <time>2012-05-01T09:45:14Z</time>
      </trkpt>
      <trkpt lat="45.29408" lon="5.67502">
        <ele>904</ele>
        <time>2012-05-01T09:46:14Z</time>
      </trkpt>
      <trkpt lat="45.29445" lon="5.67466">
        <ele>912</ele>
        <time>2012-05-01T09:46:45Z</time>
      </trkpt>
      <trkpt lat="45.29489" lon="5.67465">
        <ele>916</ele>
        <time>2012-05-01T09:47:05Z</time>
      </trkpt>
      <trkpt lat="45.29534" lon="5.67454">
        <ele>923</ele>
        <time>2012-05-01T09:47:33Z</time>
      </trkpt>
      <trkpt lat="45.29595" lon="5.67406">
        <ele>936</ele>
        <time>2012-05-01T09:48:11Z</time>
      </trkpt>
      <trkpt lat="45.29634" lon="5.67412">
        <ele>951</ele>
        <time>2012-05-01T09:49:11Z</time>
      </trkpt>
      <trkpt lat="45.29678" lon="5.67434">
        <ele>956</ele>
        <time>2012-05-01T09:49:39Z</time>
      </trkpt>
      <trkpt lat="45.29723" lon="5.67441">
        <ele>962</ele>
        <time>2012-05-01T09:49:59Z</time>
      </trkpt>
      <trkpt lat="45.29764" lon="5.67469">
        <ele>977</ele>
        <time>2012-05-01T09:50:42Z</time>
      </trkpt>
      <trkpt lat="45.29777" lon="5.67439">
        <ele>995</ele>
        <time>2012-05-01T09:51:42Z</time>
      </trkpt>
      <trkpt lat="45.29783" lon="5.67392">
        <ele>1008</ele>
        <time>2012-05-01T09:52:42Z</time>
      </trkpt>
      <trkpt lat="45.29766" lon="5.67393">
        <ele>1007</ele>
        <time>2012-05-01T09:53:42Z</time>
      </trkpt>
      <trkpt lat="45.29794" lon="5.67366">
        <ele>1012</ele>
        <time>2012-05-01T09:54:42Z</time>
      </trkpt>
      <trkpt lat="45.29833" lon="5.67357">
        <ele>1022</ele>
        <time>2012-05-01T09:55:42Z</time>
      </trkpt>
      <trkpt lat="45.29851" lon="5.67338">
        <ele>1035</ele>
        <time>2012-05-01T09:56:42Z</time>
      </trkpt>
      <trkpt lat="45.29886" lon="5.67365">
        <ele>1052</ele>
        <time>2012-05-01T09:57:42Z</time>
      </trkpt>
      <trkpt lat="45.29931" lon="5.67371">
        <ele>1063</ele>
        <time>2012-05-01T09:58:25Z</time>
      </trkpt>
      <trkpt lat="45.29958" lon="5.67359">
        <ele>1078</ele>
        <time>2012-05-01T09:59:25Z</time>
      </trkpt>
      <trkpt lat="45.29997" lon="5.67395">
        <ele>1088</ele>
        <time>2012-05-01T10:00:17Z</time>
      </trkpt>
      <trkpt lat="45.30032" lon="5.67436">
        <ele>1097</ele>
        <time>2012-05-01T10:01:00Z</time>
      </trkpt>
      <trkpt lat="45.30056" lon="5.67492">
        <ele>1094</ele>
        <time>2012-05-01T10:01:30Z</time>
      </trkpt>
      <trkpt lat="45.30059" lon="5.67582">
        <ele>1081</ele>
        <time>2012-05-01T10:02:02Z</time>
      </trkpt>
      <trkpt lat="45.30061" lon="5.67646">
        <ele>1070</ele>
        <time>2012-05-01T10:02:23Z</time>
      </trkpt>
      <trkpt lat="45.30063" lon="5.67711">
        <ele>1059</ele>
        <time>2012-05-01T10:02:42Z</time>
      </trkpt>
      <trkpt lat="45.30051" lon="5.67774">
        <ele>1054</ele>
        <time>2012-05-01T10:03:11Z</time>
      </trkpt>
      <trkpt lat="45.30025" lon="5.67827">
        <ele>1059</ele>
        <time>2012-05-01T10:03:38Z</time>
      </trkpt>
      <trkpt lat="45.29994" lon="5.67873">
        <ele>1065</ele>
        <time>2012-05-01T10:03:59Z</time>
      </trkpt>
      <trkpt lat="45.29977" lon="5.67932">
        <ele>1063</ele>
        <time>2012-05-01T10:04:24Z</time>
      </trkpt>
      <trkpt lat="45.29978" lon="5.67998">
        <ele>1068</ele>
        <time>2012-05-01T10:04:53Z</time>
      </trkpt>
      <trkpt lat="45.29988" lon="5.6806">
        <ele>1074</ele>
        <time>2012-05-01T10:05:25Z</time>
      </trkpt>
      <trkpt lat="45.29993" lon="5.6813">
        <ele>1074</ele>
        <time>2012-05-01T10:05:40Z</time>
      </trkpt>
      <trkpt lat="45.29993" lon="5.68162">
        <ele>1075</ele>
        <time>2012-05-01T10:06:40Z</time>
      </trkpt>
      <trkpt lat="45.29983" lon="5.68159">
        <ele>1074</ele>
        <time>2012-05-01T10:07:44Z</time>
      </trkpt>
      <trkpt lat="45.30012" lon="5.68189">
        <ele>1073</ele>
        <time>2012-05-01T10:08:44Z</time>
      </trkpt>
      <trkpt lat="45.30872" lon="5.6892">
        <ele>1157</ele>
        <time>2012-05-01T10:29:00Z</time>
      </trkpt>
      <trkpt lat="45.30859" lon="5.68858">
        <ele>1171</ele>
        <time>2012-05-01T10:29:55Z</time>
      </trkpt>
      <trkpt lat="45.30858" lon="5.68847">
        <ele>1186</ele>
        <time>2012-05-01T10:30:55Z</time>
      </trkpt>
      <trkpt lat="45.30893" lon="5.68888">
        <ele>1181</ele>
        <time>2012-05-01T10:31:32Z</time>
      </trkpt>
      <trkpt lat="45.3093" lon="5.68924">
        <ele>1187</ele>
        <time>2012-05-01T10:32:05Z</time>
      </trkpt>
      <trkpt lat="45.30962" lon="5.68922">
        <ele>1204</ele>
        <time>2012-05-01T10:33:05Z</time>
      </trkpt>
      <trkpt lat="45.30956" lon="5.68859">
        <ele>1219</ele>
        <time>2012-05-01T10:34:05Z</time>
      </trkpt>
      <trkpt lat="45.30976" lon="5.68801">
        <ele>1233</ele>
        <time>2012-05-01T10:34:55Z</time>
      </trkpt>
      <trkpt lat="45.3097" lon="5.68747">
        <ele>1247</ele>
        <time>2012-05-01T10:35:55Z</time>
      </trkpt>
      <trkpt lat="45.30996" lon="5.68782">
        <ele>1258</ele>
        <time>2012-05-01T10:36:55Z</time>
      </trkpt>
      <trkpt lat="45.3104" lon="5.68804">
        <ele>1268</ele>
        <time>2012-05-01T10:37:40Z</time>
      </trkpt>
      <trkpt lat="45.31062" lon="5.68861">
        <ele>1271</ele>
        <time>2012-05-01T10:38:01Z</time>
      </trkpt>
      <trkpt lat="45.31096" lon="5.68905">
        <ele>1279</ele>
        <time>2012-05-01T10:38:50Z</time>
      </trkpt>
      <trkpt lat="45.31141" lon="5.68898">
        <ele>1286</ele>
        <time>2012-05-01T10:39:19Z</time>
      </trkpt>
      <trkpt lat="45.31167" lon="5.68848">
        <ele>1300</ele>
        <time>2012-05-01T10:40:17Z</time>
      </trkpt>
      <trkpt lat="45.31199" lon="5.68825">
        <ele>1313</ele>
        <time>2012-05-01T10:41:17Z</time>
      </trkpt>
      <trkpt lat="45.31226" lon="5.68877">
        <ele>1324</ele>
        <time>2012-05-01T10:41:58Z</time>
      </trkpt>
      <trkpt lat="45.31253" lon="5.68929">
        <ele>1332</ele>
        <time>2012-05-01T10:42:38Z</time>
      </trkpt>
      <trkpt lat="45.3129" lon="5.68967">
        <ele>1344</ele>
        <time>2012-05-01T10:43:13Z</time>
      </trkpt>
      <trkpt lat="45.31335" lon="5.68979">
        <ele>1355</ele>
        <time>2012-05-01T10:43:52Z</time>
      </trkpt>
      <trkpt lat="45.3138" lon="5.68987">
        <ele>1363</ele>
        <time>2012-05-01T10:44:27Z</time>
      </trkpt>
      <trkpt lat="45.31423" lon="5.69002">
        <ele>1374</ele>
        <time>2012-05-01T10:45:07Z</time>
      </trkpt>
      <trkpt lat="45.31458" lon="5.68962">
        <ele>1378</ele>
        <time>2012-05-01T10:45:27Z</time>
      </trkpt>
      <trkpt lat="45.315" lon="5.68963">
        <ele>1396</ele>
        <time>2012-05-01T10:46:36Z</time>
      </trkpt>
      <trkpt lat="45.31534" lon="5.68923">
        <ele>1413</ele>
        <time>2012-05-01T10:47:36Z</time>
      </trkpt>
      <trkpt lat="45.31561" lon="5.68916">
        <ele>1429</ele>
        <time>2012-05-01T10:48:36Z</time>
      </trkpt>
      <trkpt lat="45.31564" lon="5.68917">
        <ele>1432</ele>
        <time>2012-05-01T10:49:36Z</time>
      </trkpt>
      <trkpt lat="45.31563" lon="5.68919">
        <ele>1432</ele>
        <time>2012-05-01T10:50:36Z</time>
      </trkpt>
      <trkpt lat="45.31564" lon="5.68919">
        <ele>1431</ele>
        <time>2012-05-01T10:51:36Z</time>
      </trkpt>
      <trkpt lat="45.31563" lon="5.68932">
        <ele>1431</ele>
        <time>2012-05-01T10:52:36Z</time>
      </trkpt>
      <trkpt lat="45.31523" lon="5.68963">
        <ele>1430</ele>
        <time>2012-05-01T10:53:02Z</time>
      </trkpt>
      <trkpt lat="45.31485" lon="5.68969">
        <ele>1406</ele>
        <time>2012-05-01T10:54:02Z</time>
      </trkpt>
      <trkpt lat="45.31499" lon="5.68973">
        <ele>1398</ele>
        <time>2012-05-01T10:55:02Z</time>
      </trkpt>
      <trkpt lat="45.31528" lon="5.68958">
        <ele>1411</ele>
        <time>2012-05-01T10:56:02Z</time>
      </trkpt>
      <trkpt lat="45.31565" lon="5.68929">
        <ele>1423</ele>
        <time>2012-05-01T10:57:02Z</time>
      </trkpt>
      <trkpt lat="45.31566" lon="5.68916">
        <ele>1433</ele>
        <time>2012-05-01T10:58:02Z</time>
      </trkpt>
      <trkpt lat="45.31566" lon="5.68916">
        <ele>1432</ele>
        <time>2012-05-01T10:59:02Z</time>
      </trkpt>
      <trkpt lat="45.31566" lon="5.68918">
        <ele>1429</ele>
        <time>2012-05-01T11:00:02Z</time>
      </trkpt>
      <trkpt lat="45.31566" lon="5.68917">
        <ele>1429</ele>
        <time>2012-05-01T11:01:02Z</time>
      </trkpt>
      <trkpt lat="45.31566" lon="5.68917">
        <ele>1427</ele>
        <time>2012-05-01T11:02:02Z</time>
      </trkpt>
      <trkpt lat="45.31577" lon="5.68923">
        <ele>1426</ele>
        <time>2012-05-01T11:03:02Z</time>
      </trkpt>
      <trkpt lat="45.31617" lon="5.68952">
        <ele>1426</ele>
        <time>2012-05-01T11:03:32Z</time>
      </trkpt>
      <trkpt lat="45.31655" lon="5.68987">
        <ele>1420</ele>
        <time>2012-05-01T11:03:58Z</time>
      </trkpt>
      <trkpt lat="45.31695" lon="5.6896">
        <ele>1405</ele>
        <time>2012-05-01T11:04:24Z</time>
      </trkpt>
      <trkpt lat="45.3174" lon="5.68964">
        <ele>1395</ele>
        <time>2012-05-01T11:04:57Z</time>
      </trkpt>
      <trkpt lat="45.3177" lon="5.69015">
        <ele>1382</ele>
        <time>2012-05-01T11:05:21Z</time>
      </trkpt>
      <trkpt lat="45.31804" lon="5.69056">
        <ele>1376</ele>
        <time>2012-05-01T11:05:39Z</time>
      </trkpt>
      <trkpt lat="45.31828" lon="5.69117">
        <ele>1367</ele>
        <time>2012-05-01T11:05:58Z</time>
      </trkpt>
      <trkpt lat="45.31822" lon="5.69182">
        <ele>1360</ele>
        <time>2012-05-01T11:06:18Z</time>
      </trkpt>
      <trkpt lat="45.31846" lon="5.69239">
        <ele>1346</ele>
        <time>2012-05-01T11:06:53Z</time>
      </trkpt>
      <trkpt lat="45.31889" lon="5.6922">
        <ele>1337</ele>
        <time>2012-05-01T11:07:27Z</time>
      </trkpt>
      <trkpt lat="45.31928" lon="5.69188">
        <ele>1330</ele>
        <time>2012-05-01T11:07:55Z</time>
      </trkpt>
      <trkpt lat="45.31958" lon="5.69141">
        <ele>1312</ele>
        <time>2012-05-01T11:08:30Z</time>
      </trkpt>
      <trkpt lat="45.31999" lon="5.69106">
        <ele>1302</ele>
        <time>2012-05-01T11:08:57Z</time>
      </trkpt>
      <trkpt lat="45.32042" lon="5.69081">
        <ele>1289</ele>
        <time>2012-05-01T11:09:23Z</time>
      </trkpt>
      <trkpt lat="45.3209" lon="5.69067">
        <ele>1278</ele>
        <time>2012-05-01T11:09:40Z</time>
      </trkpt>
      <trkpt lat="45.32134" lon="5.69054">
        <ele>1275</ele>
        <time>2012-05-01T11:09:55Z</time>
      </trkpt>
      <trkpt lat="45.32177" lon="5.69028">
        <ele>1266</ele>
        <time>2012-05-01T11:10:21Z</time>
      </trkpt>
      <trkpt lat="45.32223" lon="5.69024">
        <ele>1262</ele>
        <time>2012-05-01T11:10:37Z</time>
      </trkpt>
      <trkpt lat="45.3227" lon="5.6903">
        <ele>1248</ele>
        <time>2012-05-01T11:10:53Z</time>
      </trkpt>
      <trkpt lat="45.3231" lon="5.69062">
        <ele>1245</ele>
        <time>2012-05-01T11:11:09Z</time>
      </trkpt>
      <trkpt lat="45.3234" lon="5.6911">
        <ele>1240</ele>
        <time>2012-05-01T11:11:28Z</time>
      </trkpt>
      <trkpt lat="45.32368" lon="5.69164">
        <ele>1232</ele>
        <time>2012-05-01T11:11:46Z</time>
      </trkpt>
      <trkpt lat="45.32378" lon="5.69227">
        <ele>1229</ele>
        <time>2012-05-01T11:12:06Z</time>
      </trkpt>
      <trkpt lat="45.3241" lon="5.69274">
        <ele>1221</ele>
        <time>2012-05-01T11:12:25Z</time>
      </trkpt>
      <trkpt lat="45.32434" lon="5.69329">
        <ele>1214</ele>
        <time>2012-05-01T11:12:43Z</time>
      </trkpt>
      <trkpt lat="45.3247" lon="5.69372">
        <ele>1210</ele>
        <time>2012-05-01T11:13:15Z</time>
      </trkpt>
      <trkpt lat="45.3251" lon="5.69405">
        <ele>1204</ele>
        <time>2012-05-01T11:13:39Z</time>
      </trkpt>
      <trkpt lat="45.32558" lon="5.69421">
        <ele>1196</ele>
        <time>2012-05-01T11:13:59Z</time>
      </trkpt>
      <trkpt lat="45.32577" lon="5.69481">
        <ele>1186</ele>
        <time>2012-05-01T11:14:16Z</time>
      </trkpt>
      <trkpt lat="45.32588" lon="5.69502">
        <ele>1167</ele>
        <time>2012-05-01T11:15:16Z</time>
      </trkpt>
      <trkpt lat="45.32606" lon="5.69444">
        <ele>1169</ele>
        <time>2012-05-01T11:16:01Z</time>
      </trkpt>
      <trkpt lat="45.32628" lon="5.69388">
        <ele>1179</ele>
        <time>2012-05-01T11:16:39Z</time>
      </trkpt>
      <trkpt lat="45.3264" lon="5.69327">
        <ele>1187</ele>
        <time>2012-05-01T11:17:06Z</time>
      </trkpt>
      <trkpt lat="45.32643" lon="5.69263">
        <ele>1194</ele>
        <time>2012-05-01T11:17:31Z</time>
      </trkpt>
      <trkpt lat="45.32664" lon="5.69208">
        <ele>1206</ele>
        <time>2012-05-01T11:18:31Z</time>
      </trkpt>
      <trkpt lat="45.32673" lon="5.69128">
        <ele>1207</ele>
        <time>2012-05-01T11:19:08Z</time>
      </trkpt>
      <trkpt lat="45.32675" lon="5.69065">
        <ele>1205</ele>
        <time>2012-05-01T11:19:36Z</time>
      </trkpt>
      <trkpt lat="45.32696" lon="5.69006">
        <ele>1207</ele>
        <time>2012-05-01T11:20:01Z</time>
      </trkpt>
      <trkpt lat="45.32692" lon="5.68942">
        <ele>1199</ele>
        <time>2012-05-01T11:20:35Z</time>
      </trkpt>
      <trkpt lat="45.32699" lon="5.68878">
        <ele>1194</ele>
        <time>2012-05-01T11:20:56Z</time>
      </trkpt>
      <trkpt lat="45.32716" lon="5.68819">
        <ele>1183</ele>
        <time>2012-05-01T11:21:25Z</time>
      </trkpt>
      <trkpt lat="45.32757" lon="5.6876">
        <ele>1178</ele>
        <time>2012-05-01T11:22:03Z</time>
      </trkpt>
      <trkpt lat="45.32745" lon="5.68699">
        <ele>1169</ele>
        <time>2012-05-01T11:22:24Z</time>
      </trkpt>
      <trkpt lat="45.32729" lon="5.68633">
        <ele>1147</ele>
        <time>2012-05-01T11:23:01Z</time>
      </trkpt>
      <trkpt lat="45.32755" lon="5.68582">
        <ele>1138</ele>
        <time>2012-05-01T11:23:23Z</time>
      </trkpt>
      <trkpt lat="45.32775" lon="5.68523">
        <ele>1129</ele>
        <time>2012-05-01T11:23:47Z</time>
      </trkpt>
      <trkpt lat="45.32762" lon="5.68461">
        <ele>1124</ele>
        <time>2012-05-01T11:24:05Z</time>
      </trkpt>
      <trkpt lat="45.32748" lon="5.68401">
        <ele>1119</ele>
        <time>2012-05-01T11:24:28Z</time>
      </trkpt>
      <trkpt lat="45.32747" lon="5.68379">
        <ele>1105</ele>
        <time>2012-05-01T11:25:28Z</time>
      </trkpt>
      <trkpt lat="45.3278" lon="5.6836">
        <ele>1103</ele>
        <time>2012-05-01T11:26:28Z</time>
      </trkpt>
      <trkpt lat="45.32755" lon="5.68306">
        <ele>1079</ele>
        <time>2012-05-01T11:27:28Z</time>
      </trkpt>
      <trkpt lat="45.32781" lon="5.68253">
        <ele>1061</ele>
        <time>2012-05-01T11:27:56Z</time>
      </trkpt>
      <trkpt lat="45.32814" lon="5.68209">
        <ele>1039</ele>
        <time>2012-05-01T11:28:26Z</time>
      </trkpt>
      <trkpt lat="45.32858" lon="5.68192">
        <ele>1021</ele>
        <time>2012-05-01T11:28:53Z</time>
      </trkpt>
      <trkpt lat="45.32886" lon="5.68142">
        <ele>1008</ele>
        <time>2012-05-01T11:29:17Z</time>
      </trkpt>
      <trkpt lat="45.32929" lon="5.68121">
        <ele>990</ele>
        <time>2012-05-01T11:29:43Z</time>
      </trkpt>
      <trkpt lat="45.32972" lon="5.68137">
        <ele>971</ele>
        <time>2012-05-01T11:30:14Z</time>
      </trkpt>
      <trkpt lat="45.32999" lon="5.68113">
        <ele>952</ele>
        <time>2012-05-01T11:31:14Z</time>
      </trkpt>
      <trkpt lat="45.33043" lon="5.68123">
        <ele>952</ele>
        <time>2012-05-01T11:31:41Z</time>
      </trkpt>
      <trkpt lat="45.33043" lon="5.68056">
        <ele>946</ele>
        <time>2012-05-01T11:32:09Z</time>
      </trkpt>
      <trkpt lat="45.3301" lon="5.68037">
        <ele>909</ele>
        <time>2012-05-01T11:33:09Z</time>
      </trkpt>
      <trkpt lat="45.32969" lon="5.6801">
        <ele>899</ele>
        <time>2012-05-01T11:33:38Z</time>
      </trkpt>
      <trkpt lat="45.3295" lon="5.67952">
        <ele>873</ele>
        <time>2012-05-01T11:34:26Z</time>
      </trkpt>
      <trkpt lat="45.3292" lon="5.67906">
        <ele>844</ele>
        <time>2012-05-01T11:35:11Z</time>
      </trkpt>
      <trkpt lat="45.32873" lon="5.67906">
        <ele>828</ele>
        <time>2012-05-01T11:35:47Z</time>
      </trkpt>
      <trkpt lat="45.32827" lon="5.67888">
        <ele>806</ele>
        <time>2012-05-01T11:36:20Z</time>
      </trkpt>
      <trkpt lat="45.32784" lon="5.67873">
        <ele>800</ele>
        <time>2012-05-01T11:36:38Z</time>
      </trkpt>
      <trkpt lat="45.32739" lon="5.67873">
        <ele>782</ele>
        <time>2012-05-01T11:37:05Z</time>
      </trkpt>
      <trkpt lat="45.32694" lon="5.67886">
        <ele>770</ele>
        <time>2012-05-01T11:37:26Z</time>
      </trkpt>
      <trkpt lat="45.32658" lon="5.67845">
        <ele>747</ele>
        <time>2012-05-01T11:38:07Z</time>
      </trkpt>
      <trkpt lat="45.32617" lon="5.67875">
        <ele>739</ele>
        <time>2012-05-01T11:38:20Z</time>
      </trkpt>
      <trkpt lat="45.32576" lon="5.67903">
        <ele>734</ele>
        <time>2012-05-01T11:38:38Z</time>
      </trkpt>
    </trkseg>
  </trk>
</gpx>